Time;durP1;ratioP1;P1;durP2;ratioP2;P2;SDS_P1;SDS_P2;PMS_P1;PMS_P2;Temp;Humidity;BMP_temperature;BMP_pressure;BME280_temperature;BME280_humidity;BME280_pressure;Samples;Min_cycle;Max_cycle;Signal;HPM_P1;HPM_P2
2022/04/20 00:00:38;;;;;;;;;;;17.10;72.60;;;;;;2013058;28;19911;-71
2022/04/20 00:01:36;;;;;;;;;;;17.10;72.40;;;;;;2013061;28;20356;-68
2022/04/20 00:02:35;;;;;;;;;;;17.10;72.60;;;;;;2013062;28;19905;-69
2022/04/20 00:03:33;;;;;;;;;;;17.10;72.50;;;;;;2013089;28;19996;-69
2022/04/20 00:04:32;;;;;;;;;;;17.10;72.40;;;;;;2012779;28;19928;-69
2022/04/20 00:05:33;;;;;;;;;;;17.10;72.50;;;;;;2013000;28;19912;-68
2022/04/20 00:06:33;;;;;;;;;;;17.10;72.50;;;;;;2012761;28;19912;-70
2022/04/20 00:07:33;;;;;;;;;;;17.10;72.40;;;;;;2012900;28;20348;-70
2022/04/20 00:08:32;;;;;;;;;;;17.10;72.50;;;;;;2013017;28;19905;-69
2022/04/20 00:09:30;;;;;;;;;;;17.10;72.60;;;;;;2013015;28;19960;-70
2022/04/20 00:10:29;;;;;;;;;;;17.10;72.60;;;;;;2014416;28;19905;-70
2022/04/20 00:11:28;;;;;;;;;;;17.10;72.70;;;;;;2021079;28;19952;-70
2022/04/20 00:12:26;;;;;;;;;;;17.10;72.60;;;;;;2020979;28;19904;-69
2022/04/20 00:13:24;;;;;;;;;;;17.10;72.60;;;;;;2021663;28;20027;-69
2022/04/20 00:14:23;;;;;;;;;;;17.10;72.70;;;;;;2018093;28;19905;-69
2022/04/20 00:15:22;;;;;;;;;;;17.00;73.30;;;;;;2013712;28;19909;-69
2022/04/20 00:16:20;;;;;;;;;;;17.10;72.80;;;;;;2013360;28;20291;-69
2022/04/20 00:17:20;;;;;;;;;;;17.10;72.80;;;;;;2013370;28;19905;-69
2022/04/20 00:18:18;;;;;;;;;;;17.10;72.80;;;;;;2013198;28;19963;-70
2022/04/20 00:19:17;;;;;;;;;;;17.10;72.80;;;;;;2013083;28;19916;-68
2022/04/20 00:20:15;;;;;;;;;;;17.10;72.90;;;;;;2013147;28;19905;-70
2022/04/20 00:21:14;;;;;;;;;;;17.10;73.50;;;;;;2013175;28;19905;-69
2022/04/20 00:22:12;;;;;;;;;;;17.10;73.60;;;;;;2013008;28;19909;-69
2022/04/20 00:23:10;;;;;;;;;;;17.10;73.00;;;;;;2013077;28;19905;-70
2022/04/20 00:24:09;;;;;;;;;;;17.10;73.00;;;;;;2012940;28;19904;-69
2022/04/20 00:25:07;;;;;;;;;;;17.10;73.00;;;;;;2012882;28;19905;-69
2022/04/20 00:26:06;;;;;;;;;;;17.10;73.10;;;;;;2012837;28;19972;-70
2022/04/20 00:27:04;;;;;;;;;;;17.10;73.10;;;;;;2012786;28;19905;-70
2022/04/20 00:28:03;;;;;;;;;;;17.00;73.10;;;;;;2012858;28;19905;-69
2022/04/20 00:29:01;;;;;;;;;;;17.00;73.20;;;;;;2012889;28;19913;-69
2022/04/20 00:30:00;;;;;;;;;;;17.10;73.30;;;;;;2012825;28;19928;-69
2022/04/20 00:30:58;;;;;;;;;;;17.00;73.10;;;;;;2012872;28;20023;-69
2022/04/20 00:31:57;;;;;;;;;;;17.00;73.20;;;;;;2012870;28;20059;-71
2022/04/20 00:32:55;;;;;;;;;;;17.00;73.30;;;;;;2012877;28;19959;-70
2022/04/20 00:33:54;;;;;;;;;;;17.00;73.30;;;;;;2012259;28;20353;-70
2022/04/20 00:34:52;;;;;;;;;;;17.00;73.30;;;;;;2012410;28;19982;-69
2022/04/20 00:35:50;;;;;;;;;;;17.00;73.40;;;;;;2012840;28;19912;-69
2022/04/20 00:36:51;;;;;;;;;;;17.00;73.40;;;;;;2012764;28;19992;-68
2022/04/20 00:37:49;;;;;;;;;;;17.00;73.60;;;;;;2012852;28;20087;-69
2022/04/20 00:38:48;;;;;;;;;;;17.00;73.60;;;;;;2012843;28;19905;-69
2022/04/20 00:39:46;;;;;;;;;;;17.00;73.70;;;;;;2012811;28;19936;-68
2022/04/20 00:40:47;;;;;;;;;;;17.00;73.60;;;;;;2012682;28;20375;-69
2022/04/20 00:41:45;;;;;;;;;;;17.00;73.60;;;;;;2012707;28;19956;-70
2022/04/20 00:42:44;;;;;;;;;;;17.00;73.50;;;;;;2012162;28;19945;-69
2022/04/20 00:43:43;;;;;;;;;;;17.00;73.40;;;;;;2012339;28;19952;-69
2022/04/20 00:44:41;;;;;;;;;;;17.00;73.40;;;;;;2012710;28;20368;-69
2022/04/20 00:45:40;;;;;;;;;;;17.00;73.40;;;;;;2012682;28;19905;-69
2022/04/20 00:46:40;;;;;;;;;;;17.00;73.40;;;;;;2014325;28;19905;-69
2022/04/20 00:47:42;;;;;;;;;;;17.00;73.50;;;;;;2014505;28;20387;-69
2022/04/20 00:48:41;;;;;;;;;;;17.00;73.60;;;;;;2014520;28;19912;-70
2022/04/20 00:49:40;;;;;;;;;;;17.00;73.70;;;;;;2014382;28;20382;-69
2022/04/20 00:50:40;;;;;;;;;;;17.00;73.80;;;;;;2014558;28;20371;-69
2022/04/20 00:51:49;;;;;;;;;;;17.00;73.70;;;;;;2014279;28;19909;-69
2022/04/20 00:52:48;;;;;;;;;;;17.00;73.80;;;;;;2014290;28;20325;-70
2022/04/20 00:53:46;;;;;;;;;;;17.00;73.90;;;;;;2014357;28;19955;-70
2022/04/20 00:54:45;;;;;;;;;;;17.00;73.90;;;;;;2014118;28;19953;-70
2022/04/20 00:55:43;;;;;;;;;;;17.00;73.90;;;;;;2013771;28;20486;-70
2022/04/20 00:56:42;;;;;;;;;;;17.00;73.90;;;;;;2013784;28;19975;-70
2022/04/20 00:57:40;;;;;;;;;;;17.00;74.00;;;;;;2014315;28;19909;-70
2022/04/20 00:58:40;;;;;;;;;;;17.00;74.00;;;;;;2014238;28;20364;-70
2022/04/20 00:59:39;;;;;;;;;;;17.00;74.00;;;;;;2014420;28;20332;-70
2022/04/20 01:00:37;;;;;;;;;;;17.00;74.00;;;;;;2014301;28;20008;-69
2022/04/20 01:01:35;;;;;;;;;;;17.00;74.20;;;;;;2014460;28;19963;-69
2022/04/20 01:02:34;;;;;;;;;;;17.00;74.20;;;;;;2014608;28;20276;-69
2022/04/20 01:03:33;;;;;;;;;;;17.00;74.20;;;;;;2014573;28;19944;-69
2022/04/20 01:04:31;;;;;;;;;;;17.00;74.30;;;;;;2014523;28;19905;-69
2022/04/20 01:05:31;;;;;;;;;;;17.00;74.50;;;;;;2014664;28;19972;-68
2022/04/20 01:06:29;;;;;;;;;;;17.00;74.50;;;;;;2014714;28;19916;-69
2022/04/20 01:07:33;;;;;;;;;;;17.00;74.60;;;;;;2016116;28;20283;-70
2022/04/20 01:08:32;;;;;;;;;;;17.00;74.90;;;;;;2022145;28;19905;-69
2022/04/20 01:09:30;;;;;;;;;;;16.90;74.70;;;;;;2023016;28;19905;-69
2022/04/20 01:10:29;;;;;;;;;;;17.00;74.90;;;;;;2023547;28;19928;-68
2022/04/20 01:11:27;;;;;;;;;;;17.00;74.80;;;;;;2022033;28;19916;-69
2022/04/20 01:12:26;;;;;;;;;;;16.90;74.60;;;;;;2015772;28;19905;-70
2022/04/20 01:13:24;;;;;;;;;;;17.00;74.60;;;;;;2015428;28;19911;-70
2022/04/20 01:14:23;;;;;;;;;;;17.00;74.70;;;;;;2014259;28;19909;-70
2022/04/20 01:15:21;;;;;;;;;;;17.00;74.60;;;;;;2014221;28;19916;-70
2022/04/20 01:16:19;;;;;;;;;;;17.00;74.60;;;;;;2014036;28;20335;-71
2022/04/20 01:17:18;;;;;;;;;;;16.90;74.60;;;;;;2014122;28;19905;-69
2022/04/20 01:18:16;;;;;;;;;;;17.00;74.70;;;;;;2014131;28;20337;-71
2022/04/20 01:19:15;;;;;;;;;;;16.90;74.80;;;;;;2014224;28;20003;-69
2022/04/20 01:20:14;;;;;;;;;;;17.00;74.80;;;;;;2014129;28;20343;-71
2022/04/20 01:21:12;;;;;;;;;;;17.00;75.00;;;;;;2014235;28;20292;-69
2022/04/20 01:22:11;;;;;;;;;;;16.90;74.80;;;;;;2014258;28;20000;-70
2022/04/20 01:23:12;;;;;;;;;;;16.90;74.90;;;;;;2014231;28;19955;-70
2022/04/20 01:24:11;;;;;;;;;;;16.90;74.90;;;;;;2014145;28;19912;-70
2022/04/20 01:25:10;;;;;;;;;;;17.00;75.00;;;;;;2014162;28;19951;-69
2022/04/20 01:26:09;;;;;;;;;;;17.00;75.10;;;;;;2014161;28;20282;-70
2022/04/20 01:27:08;;;;;;;;;;;16.90;75.20;;;;;;2014073;28;19905;-70
2022/04/20 01:28:07;;;;;;;;;;;16.90;75.30;;;;;;2013448;28;20272;-70
2022/04/20 01:29:06;;;;;;;;;;;16.90;75.30;;;;;;2013370;28;19909;-71
2022/04/20 01:30:05;;;;;;;;;;;16.90;75.60;;;;;;2014088;28;19951;-69
2022/04/20 01:31:04;;;;;;;;;;;17.00;75.60;;;;;;2014097;28;20198;-69
2022/04/20 01:32:03;;;;;;;;;;;16.90;75.60;;;;;;2014310;28;20013;-70
2022/04/20 01:33:02;;;;;;;;;;;17.00;75.70;;;;;;2013536;28;20383;-69
2022/04/20 01:34:00;;;;;;;;;;;16.90;75.60;;;;;;2013729;28;19905;-69
2022/04/20 01:34:59;;;;;;;;;;;16.90;75.50;;;;;;2013990;28;19909;-70
2022/04/20 01:35:57;;;;;;;;;;;16.90;75.40;;;;;;2014107;28;19905;-69
2022/04/20 01:36:55;;;;;;;;;;;16.90;75.40;;;;;;2013999;28;19905;-69
2022/04/20 01:37:54;;;;;;;;;;;16.90;75.20;;;;;;2013251;28;20410;-69
2022/04/20 01:38:52;;;;;;;;;;;16.90;75.30;;;;;;2013505;28;19909;-70
2022/04/20 01:39:51;;;;;;;;;;;16.90;75.30;;;;;;2014129;28;20011;-70
2022/04/20 01:40:49;;;;;;;;;;;16.90;75.20;;;;;;2013858;28;20418;-70
2022/04/20 01:41:48;;;;;;;;;;;16.90;75.00;;;;;;2013960;28;19905;-69
2022/04/20 01:42:46;;;;;;;;;;;16.90;74.80;;;;;;2014017;28;20347;-70
2022/04/20 01:43:44;;;;;;;;;;;16.90;74.80;;;;;;2014041;28;20081;-70
2022/04/20 01:44:43;;;;;;;;;;;16.90;74.70;;;;;;2014015;28;20323;-70
2022/04/20 01:45:41;;;;;;;;;;;16.90;74.50;;;;;;2013952;28;19908;-70
2022/04/20 01:46:40;;;;;;;;;;;16.90;74.50;;;;;;2014024;28;19978;-70
2022/04/20 01:47:38;;;;;;;;;;;16.90;74.30;;;;;;2014148;28;19905;-70
2022/04/20 01:48:37;;;;;;;;;;;16.90;74.30;;;;;;2014062;28;19905;-69
2022/04/20 01:49:35;;;;;;;;;;;16.90;74.30;;;;;;2014032;28;19999;-71
2022/04/20 01:51:46;;;;;;;;;;;16.90;74.20;;;;;;2014100;28;20264;-70
2022/04/20 01:51:52;;;;;;;;;;;16.90;74.20;;;;;;2013849;28;20384;-69
2022/04/20 01:52:50;;;;;;;;;;;16.90;74.20;;;;;;2013883;28;19901;-69
2022/04/20 01:53:49;;;;;;;;;;;16.90;74.20;;;;;;2013856;28;19905;-69
2022/04/20 01:54:47;;;;;;;;;;;16.90;74.20;;;;;;2013675;28;19999;-69
2022/04/20 01:55:46;;;;;;;;;;;16.90;74.20;;;;;;2013987;28;20190;-69
2022/04/20 01:56:48;;;;;;;;;;;16.90;74.10;;;;;;2013491;28;19905;-71
2022/04/20 01:57:46;;;;;;;;;;;16.90;74.20;;;;;;2013878;28;19911;-69
2022/04/20 01:58:45;;;;;;;;;;;16.90;74.00;;;;;;2013855;28;20299;-69
2022/04/20 01:59:44;;;;;;;;;;;16.90;74.80;;;;;;2013996;28;19905;-69
2022/04/20 02:00:43;;;;;;;;;;;16.90;74.20;;;;;;2013971;28;19948;-69
2022/04/20 02:02:59;;;;;;;;;;;16.90;74.20;;;;;;2014131;28;19905;-69
2022/04/20 02:03:57;;;;;;;;;;;16.90;74.20;;;;;;2013958;28;19905;-69
2022/04/20 02:04:56;;;;;;;;;;;16.90;74.20;;;;;;2013778;28;19905;-69
2022/04/20 02:05:55;;;;;;;;;;;16.90;74.00;;;;;;2013747;28;20386;-70
2022/04/20 02:06:55;;;;;;;;;;;16.90;74.20;;;;;;2013857;28;19944;-70
2022/04/20 02:07:55;;;;;;;;;;;16.90;74.10;;;;;;2013928;28;19909;-70
2022/04/20 02:08:53;;;;;;;;;;;16.90;74.00;;;;;;2013915;28;20186;-70
2022/04/20 02:09:53;;;;;;;;;;;16.90;74.00;;;;;;2013825;28;19916;-70
2022/04/20 02:10:51;;;;;;;;;;;16.80;73.80;;;;;;2014016;28;20349;-70
2022/04/20 02:11:50;;;;;;;;;;;16.90;73.90;;;;;;2013827;28;19905;-70
2022/04/20 02:12:48;;;;;;;;;;;16.90;74.60;;;;;;2014006;28;19905;-70
2022/04/20 02:13:47;;;;;;;;;;;16.90;73.90;;;;;;2013821;28;19911;-70
2022/04/20 02:14:47;;;;;;;;;;;16.90;74.00;;;;;;2013789;28;19953;-70
2022/04/20 02:15:45;;;;;;;;;;;16.90;74.00;;;;;;2013870;28;20253;-70
2022/04/20 02:16:43;;;;;;;;;;;16.90;73.90;;;;;;2013765;28;19959;-70
2022/04/20 02:17:42;;;;;;;;;;;16.90;74.00;;;;;;2013606;28;19909;-69
2022/04/20 02:18:41;;;;;;;;;;;16.90;74.00;;;;;;2013678;28;19905;-70
2022/04/20 02:19:39;;;;;;;;;;;16.80;73.80;;;;;;2013854;28;19948;-69
2022/04/20 02:20:38;;;;;;;;;;;16.80;73.80;;;;;;2013803;28;19905;-70
2022/04/20 02:21:36;;;;;;;;;;;16.80;73.80;;;;;;2013782;28;19921;-69
2022/04/20 02:22:35;;;;;;;;;;;16.90;74.00;;;;;;2013799;28;19905;-70
2022/04/20 02:23:33;;;;;;;;;;;16.90;73.90;;;;;;2013633;28;19905;-70
2022/04/20 02:24:32;;;;;;;;;;;16.80;73.80;;;;;;2013748;28;19944;-70
2022/04/20 02:25:30;;;;;;;;;;;16.90;73.90;;;;;;2013783;28;20369;-70
2022/04/20 02:26:28;;;;;;;;;;;16.90;74.00;;;;;;2013720;28;19905;-70
2022/04/20 02:27:27;;;;;;;;;;;16.80;73.90;;;;;;2013725;28;19905;-69
2022/04/20 02:28:25;;;;;;;;;;;16.80;74.10;;;;;;2013701;28;19928;-70
2022/04/20 02:29:24;;;;;;;;;;;16.80;73.90;;;;;;2013609;28;19912;-70
2022/04/20 02:30:22;;;;;;;;;;;16.80;73.80;;;;;;2013566;28;19913;-69
2022/04/20 02:31:21;;;;;;;;;;;16.80;73.80;;;;;;2013702;28;19999;-69
2022/04/20 02:32:21;;;;;;;;;;;16.80;73.80;;;;;;2013648;28;19905;-69
2022/04/20 02:33:20;;;;;;;;;;;16.80;73.80;;;;;;2013666;28;20230;-68
2022/04/20 02:34:18;;;;;;;;;;;16.80;73.90;;;;;;2013570;28;19951;-69
2022/04/20 02:35:16;;;;;;;;;;;16.80;73.90;;;;;;2013531;28;19916;-69
2022/04/20 02:36:15;;;;;;;;;;;16.80;73.90;;;;;;2013635;28;20321;-69
2022/04/20 02:37:14;;;;;;;;;;;16.80;74.00;;;;;;2013520;28;19959;-69
2022/04/20 02:38:14;;;;;;;;;;;16.80;74.10;;;;;;2013527;28;20400;-69
2022/04/20 02:39:13;;;;;;;;;;;16.80;74.10;;;;;;2013559;28;19923;-70
2022/04/20 02:40:13;;;;;;;;;;;16.80;74.10;;;;;;2013575;28;19905;-69
2022/04/20 02:41:11;;;;;;;;;;;16.80;74.10;;;;;;2013415;28;19905;-69
2022/04/20 02:42:10;;;;;;;;;;;16.80;74.10;;;;;;2013512;28;19905;-69
2022/04/20 02:43:08;;;;;;;;;;;16.80;74.30;;;;;;2013540;28;20306;-69
2022/04/20 02:44:07;;;;;;;;;;;16.80;74.40;;;;;;2013503;28;19963;-69
2022/04/20 02:45:06;;;;;;;;;;;16.80;74.40;;;;;;2013555;28;20384;-70
2022/04/20 02:46:05;;;;;;;;;;;16.80;74.60;;;;;;2013507;28;19995;-69
2022/04/20 02:47:04;;;;;;;;;;;16.80;74.60;;;;;;2013385;28;19909;-69
2022/04/20 02:48:03;;;;;;;;;;;16.80;74.80;;;;;;2013641;28;20360;-69
2022/04/20 02:49:01;;;;;;;;;;;16.80;74.90;;;;;;2013433;28;19985;-69
2022/04/20 02:49:59;;;;;;;;;;;16.80;75.00;;;;;;2013566;28;19905;-69
2022/04/20 02:50:58;;;;;;;;;;;16.80;75.10;;;;;;2012778;28;19905;-69
2022/04/20 02:51:56;;;;;;;;;;;16.80;75.30;;;;;;2013049;28;19912;-69
2022/04/20 02:52:55;;;;;;;;;;;16.80;75.40;;;;;;2013357;28;19912;-71
2022/04/20 02:53:53;;;;;;;;;;;16.80;75.80;;;;;;2013223;28;19928;-69
2022/04/20 02:54:52;;;;;;;;;;;16.80;76.00;;;;;;2013166;28;20106;-70
2022/04/20 02:55:50;;;;;;;;;;;16.80;76.20;;;;;;2013552;28;20297;-69
2022/04/20 02:56:49;;;;;;;;;;;16.80;76.30;;;;;;2013440;28;19905;-69
2022/04/20 02:57:47;;;;;;;;;;;16.80;76.40;;;;;;2013449;28;19912;-70
2022/04/20 02:58:46;;;;;;;;;;;16.80;76.60;;;;;;2013560;28;19909;-70
2022/04/20 02:59:44;;;;;;;;;;;16.80;76.80;;;;;;2013520;28;19951;-70
2022/04/20 03:00:43;;;;;;;;;;;16.80;76.80;;;;;;2013358;28;19909;-68
2022/04/20 03:01:41;;;;;;;;;;;16.80;77.00;;;;;;2015403;28;19944;-69
2022/04/20 03:02:40;;;;;;;;;;;16.80;76.90;;;;;;2016817;28;19916;-69
2022/04/20 03:03:38;;;;;;;;;;;16.70;76.90;;;;;;2017246;28;19905;-69
2022/04/20 03:04:37;;;;;;;;;;;16.80;77.00;;;;;;2018380;28;19936;-69
2022/04/20 03:05:35;;;;;;;;;;;16.80;76.90;;;;;;2015259;28;20024;-69
2022/04/20 03:06:33;;;;;;;;;;;16.80;77.00;;;;;;2014081;28;19960;-69
2022/04/20 03:07:32;;;;;;;;;;;16.80;77.00;;;;;;2014310;28;20264;-69
2022/04/20 03:08:31;;;;;;;;;;;16.80;77.00;;;;;;2013503;28;19905;-69
2022/04/20 03:09:29;;;;;;;;;;;16.80;77.00;;;;;;2013380;28;19905;-69
2022/04/20 03:10:27;;;;;;;;;;;16.80;77.10;;;;;;2013521;28;19905;-69
2022/04/20 03:11:27;;;;;;;;;;;16.70;77.00;;;;;;2013713;28;19958;-69
2022/04/20 03:12:25;;;;;;;;;;;16.70;77.10;;;;;;2012911;28;20319;-70
2022/04/20 03:13:24;;;;;;;;;;;16.70;77.00;;;;;;2004867;28;19945;-69
2022/04/20 03:14:22;;;;;;;;;;;16.70;77.00;;;;;;2012330;28;19967;-70
2022/04/20 03:15:21;;;;;;;;;;;16.70;77.80;;;;;;2013416;28;20214;-69
2022/04/20 03:16:19;;;;;;;;;;;16.70;77.10;;;;;;2013293;28;19943;-69
2022/04/20 03:17:17;;;;;;;;;;;16.70;77.10;;;;;;2013335;28;19963;-69
2022/04/20 03:18:16;;;;;;;;;;;16.70;77.10;;;;;;2012523;28;19912;-69
2022/04/20 03:19:14;;;;;;;;;;;16.70;77.10;;;;;;2012645;28;19912;-69
2022/04/20 03:20:13;;;;;;;;;;;16.80;77.30;;;;;;2013287;28;19909;-70
2022/04/20 03:21:11;;;;;;;;;;;16.70;77.20;;;;;;2013408;28;20000;-70
2022/04/20 03:22:10;;;;;;;;;;;16.70;77.20;;;;;;2013356;28;19905;-70
2022/04/20 03:23:08;;;;;;;;;;;16.70;77.10;;;;;;2013516;28;19905;-69
2022/04/20 03:24:07;;;;;;;;;;;16.70;77.20;;;;;;2012682;28;19955;-71
2022/04/20 03:25:05;;;;;;;;;;;16.70;77.20;;;;;;2012892;28;19974;-71
2022/04/20 03:26:04;;;;;;;;;;;16.70;77.10;;;;;;2013388;28;19927;-69
2022/04/20 03:27:02;;;;;;;;;;;16.70;77.20;;;;;;2013278;28;19915;-70
2022/04/20 03:28:00;;;;;;;;;;;16.70;77.00;;;;;;2020506;28;19905;-71
2022/04/20 03:28:59;;;;;;;;;;;16.70;76.90;;;;;;2020685;28;19955;-69
2022/04/20 03:29:57;;;;;;;;;;;16.70;77.00;;;;;;2013575;28;19912;-71
2022/04/20 03:30:56;;;;;;;;;;;16.70;77.10;;;;;;2013092;28;20323;-70
2022/04/20 03:31:54;;;;;;;;;;;16.70;76.90;;;;;;2013225;28;19955;-69
2022/04/20 03:32:53;;;;;;;;;;;16.70;76.90;;;;;;2013232;28;19963;-71
2022/04/20 03:33:51;;;;;;;;;;;16.70;76.80;;;;;;2013341;28;20364;-70
2022/04/20 03:34:50;;;;;;;;;;;16.70;77.00;;;;;;2013372;28;19905;-69
2022/04/20 03:35:48;;;;;;;;;;;16.70;77.00;;;;;;2013146;28;19956;-69
2022/04/20 03:36:47;;;;;;;;;;;16.70;76.80;;;;;;2013118;28;19905;-69
2022/04/20 03:37:45;;;;;;;;;;;16.70;76.90;;;;;;2013193;28;20319;-69
2022/04/20 03:38:44;;;;;;;;;;;16.70;76.70;;;;;;2013234;28;20366;-69
2022/04/20 03:39:43;;;;;;;;;;;16.70;76.60;;;;;;2013198;28;20383;-70
2022/04/20 03:40:42;;;;;;;;;;;16.70;76.80;;;;;;2013223;28;20343;-69
2022/04/20 03:41:40;;;;;;;;;;;16.70;76.80;;;;;;2013150;28;19959;-69
2022/04/20 03:42:39;;;;;;;;;;;16.70;76.80;;;;;;2013089;28;19919;-70
2022/04/20 03:43:37;;;;;;;;;;;16.70;76.90;;;;;;2013082;28;19912;-70
2022/04/20 03:44:36;;;;;;;;;;;16.70;76.70;;;;;;2013237;28;19905;-70
2022/04/20 03:45:34;;;;;;;;;;;16.70;76.70;;;;;;2013240;28;20404;-70
2022/04/20 03:46:32;;;;;;;;;;;16.60;76.90;;;;;;2013107;28;19905;-70
2022/04/20 03:47:31;;;;;;;;;;;16.60;77.00;;;;;;2013420;28;19934;-69
2022/04/20 03:48:29;;;;;;;;;;;16.70;77.10;;;;;;2013241;28;19912;-69
2022/04/20 03:49:28;;;;;;;;;;;16.60;76.70;;;;;;2013353;28;19905;-70
2022/04/20 03:50:26;;;;;;;;;;;16.70;76.70;;;;;;2013481;28;20039;-69
2022/04/20 03:51:25;;;;;;;;;;;16.70;76.40;;;;;;2013202;28;20434;-69
2022/04/20 03:52:23;;;;;;;;;;;16.70;76.20;;;;;;2013254;28;20000;-71
2022/04/20 03:53:21;;;;;;;;;;;16.60;75.80;;;;;;2013484;28;19912;-70
2022/04/20 03:54:20;;;;;;;;;;;16.60;75.80;;;;;;2013550;28;19905;-69
2022/04/20 03:55:18;;;;;;;;;;;16.60;75.70;;;;;;2013296;28;19924;-69
2022/04/20 03:56:17;;;;;;;;;;;16.70;75.60;;;;;;2013414;28;19944;-70
2022/04/20 03:57:16;;;;;;;;;;;16.60;75.30;;;;;;2013690;28;19996;-69
2022/04/20 03:58:14;;;;;;;;;;;16.60;75.00;;;;;;2013634;28;20349;-68
2022/04/20 03:59:13;;;;;;;;;;;16.70;75.00;;;;;;2013089;28;19909;-69
2022/04/20 04:00:12;;;;;;;;;;;16.70;74.80;;;;;;2013085;28;19941;-68
2022/04/20 04:01:11;;;;;;;;;;;16.70;74.80;;;;;;2012299;28;19977;-69
2022/04/20 04:02:09;;;;;;;;;;;16.70;74.60;;;;;;2012438;28;19979;-70
2022/04/20 04:03:07;;;;;;;;;;;16.60;74.30;;;;;;2012840;28;19912;-70
2022/04/20 04:04:06;;;;;;;;;;;16.60;74.40;;;;;;2013030;28;19905;-70
2022/04/20 04:05:04;;;;;;;;;;;16.60;74.30;;;;;;2013063;28;19912;-70
2022/04/20 04:06:03;;;;;;;;;;;16.60;74.30;;;;;;2012826;28;20299;-68
2022/04/20 04:07:01;;;;;;;;;;;16.60;74.30;;;;;;2012712;28;19912;-70
2022/04/20 04:08:00;;;;;;;;;;;16.70;74.30;;;;;;2012873;28;19905;-69
2022/04/20 04:08:59;;;;;;;;;;;16.60;74.30;;;;;;2012839;28;19912;-69
2022/04/20 04:09:57;;;;;;;;;;;16.70;74.40;;;;;;2012922;28;20448;-70
2022/04/20 04:10:56;;;;;;;;;;;16.70;74.60;;;;;;2012888;28;19905;-71
2022/04/20 04:11:55;;;;;;;;;;;16.60;74.50;;;;;;2012943;28;19905;-69
2022/04/20 04:12:54;;;;;;;;;;;16.60;74.40;;;;;;2012954;28;19912;-69
2022/04/20 04:13:53;;;;;;;;;;;16.60;74.40;;;;;;2012995;28;19916;-70
2022/04/20 04:14:51;;;;;;;;;;;16.60;74.40;;;;;;2012794;28;20313;-69
2022/04/20 04:15:50;;;;;;;;;;;16.60;74.40;;;;;;2012869;28;19905;-69
2022/04/20 04:16:48;;;;;;;;;;;16.60;74.40;;;;;;2012828;28;19905;-69
2022/04/20 04:17:51;;;;;;;;;;;16.60;74.50;;;;;;2013119;28;19905;-69
2022/04/20 04:18:50;;;;;;;;;;;16.60;74.50;;;;;;2012644;28;19996;-69
2022/04/20 04:19:48;;;;;;;;;;;16.60;74.50;;;;;;2012674;28;19905;-70
2022/04/20 04:20:47;;;;;;;;;;;16.60;74.50;;;;;;2012778;28;19928;-69
2022/04/20 04:21:46;;;;;;;;;;;16.60;74.50;;;;;;2012953;28;19995;-70
2022/04/20 04:22:45;;;;;;;;;;;16.60;74.60;;;;;;2012878;28;19998;-70
2022/04/20 04:23:43;;;;;;;;;;;16.60;74.70;;;;;;2012851;28;19963;-70
2022/04/20 04:24:42;;;;;;;;;;;16.60;74.60;;;;;;2012802;28;19944;-69
2022/04/20 04:25:40;;;;;;;;;;;16.60;74.60;;;;;;2012976;28;19912;-69
2022/04/20 04:26:40;;;;;;;;;;;16.60;74.60;;;;;;2012872;28;19995;-69
2022/04/20 04:27:39;;;;;;;;;;;16.60;74.70;;;;;;2012798;28;19944;-70
2022/04/20 04:28:37;;;;;;;;;;;16.60;74.70;;;;;;2012745;28;19905;-69
2022/04/20 04:29:36;;;;;;;;;;;16.60;74.70;;;;;;2012971;28;19905;-70
2022/04/20 04:30:35;;;;;;;;;;;16.60;74.80;;;;;;2012816;28;19905;-70
2022/04/20 04:31:37;;;;;;;;;;;16.60;74.80;;;;;;2012125;28;20388;-69
2022/04/20 04:32:36;;;;;;;;;;;16.60;74.80;;;;;;2012234;28;19996;-70
2022/04/20 04:33:35;;;;;;;;;;;16.60;74.80;;;;;;2012849;28;20233;-69
2022/04/20 04:34:33;;;;;;;;;;;16.60;74.80;;;;;;2012650;28;19916;-71
2022/04/20 04:35:34;;;;;;;;;;;16.60;74.80;;;;;;2012120;28;20039;-69
2022/04/20 04:36:32;;;;;;;;;;;16.60;75.00;;;;;;2012133;28;19908;-70
2022/04/20 04:37:31;;;;;;;;;;;16.70;75.00;;;;;;2012930;28;19995;-69
2022/04/20 04:38:29;;;;;;;;;;;16.60;74.70;;;;;;2012680;28;19951;-69
2022/04/20 04:39:31;;;;;;;;;;;16.60;74.60;;;;;;2012814;28;19911;-69
2022/04/20 04:40:30;;;;;;;;;;;16.60;74.50;;;;;;2013003;28;19927;-71
2022/04/20 04:41:29;;;;;;;;;;;16.60;74.50;;;;;;2013045;28;19905;-69
2022/04/20 04:42:27;;;;;;;;;;;16.60;74.50;;;;;;2012960;28;19948;-69
2022/04/20 04:43:25;;;;;;;;;;;16.60;74.70;;;;;;2012896;28;19905;-70
2022/04/20 04:44:24;;;;;;;;;;;16.60;74.70;;;;;;2012818;28;20321;-70
2022/04/20 04:49:14;;;;;;;;;;;16.50;74.80;;;;;;2012797;28;19905;-68
2022/04/20 04:50:14;;;;;;;;;;;16.60;74.90;;;;;;2012874;28;19909;-69
2022/04/20 04:51:12;;;;;;;;;;;16.60;74.90;;;;;;2012687;28;19905;-69
2022/04/20 04:52:11;;;;;;;;;;;16.50;74.70;;;;;;2012764;28;19990;-69
2022/04/20 04:53:09;;;;;;;;;;;16.60;74.70;;;;;;2012808;28;19939;-70
2022/04/20 04:54:08;;;;;;;;;;;16.60;74.50;;;;;;2012650;28;19912;-70
2022/04/20 04:55:06;;;;;;;;;;;16.50;74.50;;;;;;2012459;28;19921;-70
2022/04/20 04:56:05;;;;;;;;;;;16.50;74.50;;;;;;2012797;28;20356;-69
2022/04/20 04:57:03;;;;;;;;;;;16.50;74.60;;;;;;2012575;28;19908;-70
2022/04/20 04:58:02;;;;;;;;;;;16.50;74.70;;;;;;2012717;28;20000;-70
2022/04/20 04:59:00;;;;;;;;;;;16.50;74.70;;;;;;2012843;28;19951;-69
2022/04/20 04:59:59;;;;;;;;;;;16.50;74.80;;;;;;2012647;28;19905;-70
2022/04/20 05:00:58;;;;;;;;;;;16.50;74.80;;;;;;2012455;28;19995;-69
2022/04/20 05:01:56;;;;;;;;;;;16.50;74.70;;;;;;2012416;28;19909;-69
2022/04/20 05:02:55;;;;;;;;;;;16.60;74.70;;;;;;2011851;28;19905;-68
2022/04/20 05:03:53;;;;;;;;;;;16.60;75.00;;;;;;2012030;28;19905;-70
2022/04/20 05:04:52;;;;;;;;;;;16.80;75.60;;;;;;2012640;28;19951;-69
2022/04/20 05:05:51;;;;;;;;;;;16.70;75.70;;;;;;2012522;28;20046;-70
2022/04/20 05:06:49;;;;;;;;;;;16.60;75.90;;;;;;2012544;28;19916;-69
2022/04/20 05:07:54;;;;;;;;;;;16.60;75.90;;;;;;2012620;28;19996;-69
2022/04/20 05:08:52;;;;;;;;;;;16.70;76.00;;;;;;2012637;28;19905;-71
2022/04/20 05:09:51;;;;;;;;;;;16.60;75.90;;;;;;2012614;28;19905;-70
2022/04/20 05:10:49;;;;;;;;;;;16.60;76.00;;;;;;2012513;28;20335;-69
2022/04/20 05:11:49;;;;;;;;;;;16.60;76.20;;;;;;2011779;28;19909;-69
2022/04/20 05:12:47;;;;;;;;;;;16.60;76.20;;;;;;2011901;28;20376;-70
2022/04/20 05:13:46;;;;;;;;;;;16.60;76.20;;;;;;2011985;28;20057;-70
2022/04/20 05:14:44;;;;;;;;;;;16.60;76.20;;;;;;2012536;28;19909;-69
2022/04/20 05:15:44;;;;;;;;;;;16.50;76.10;;;;;;2012498;28;19916;-69
2022/04/20 05:16:43;;;;;;;;;;;16.60;76.20;;;;;;2012553;28;19905;-69
2022/04/20 05:17:41;;;;;;;;;;;16.60;76.20;;;;;;2012445;28;19905;-69
2022/04/20 05:18:40;;;;;;;;;;;16.60;76.10;;;;;;2012511;28;19905;-69
2022/04/20 05:19:38;;;;;;;;;;;16.60;76.00;;;;;;2012504;28;20032;-69
2022/04/20 05:20:36;;;;;;;;;;;16.50;76.00;;;;;;2012540;28;19991;-69
2022/04/20 05:21:35;;;;;;;;;;;16.50;76.00;;;;;;2012204;28;19956;-68
2022/04/20 05:22:33;;;;;;;;;;;16.50;76.20;;;;;;2012434;28;19962;-68
2022/04/20 05:23:33;;;;;;;;;;;16.50;76.10;;;;;;2012454;28;19928;-69
2022/04/20 05:24:35;;;;;;;;;;;16.50;76.20;;;;;;2012543;28;20311;-69
2022/04/20 05:25:34;;;;;;;;;;;16.50;76.20;;;;;;2011889;28;19929;-69
2022/04/20 05:26:32;;;;;;;;;;;16.40;76.20;;;;;;2011854;28;19952;-70
2022/04/20 05:27:31;;;;;;;;;;;16.50;76.20;;;;;;2012403;28;19905;-68
2022/04/20 05:28:29;;;;;;;;;;;16.50;76.40;;;;;;2012413;28;19912;-68
2022/04/20 05:29:28;;;;;;;;;;;16.50;76.00;;;;;;2012376;28;20012;-70
2022/04/20 05:30:26;;;;;;;;;;;16.60;76.00;;;;;;2012301;28;20077;-68
2022/04/20 05:31:25;;;;;;;;;;;16.50;76.00;;;;;;2012396;28;19905;-68
2022/04/20 05:32:23;;;;;;;;;;;16.50;76.00;;;;;;2013199;28;19991;-69
2022/04/20 05:33:21;;;;;;;;;;;16.50;76.10;;;;;;2013855;28;20349;-69
2022/04/20 05:34:20;;;;;;;;;;;16.50;76.00;;;;;;2013841;28;19928;-69
2022/04/20 05:35:18;;;;;;;;;;;16.50;76.20;;;;;;2013912;28;19978;-69
2022/04/20 05:36:19;;;;;;;;;;;16.50;76.20;;;;;;2013818;28;19905;-69
2022/04/20 05:42:26;;;;;;;;;;;16.40;75.90;;;;;;2014098;28;20368;-69
2022/04/20 05:43:25;;;;;;;;;;;16.50;76.10;;;;;;2013973;28;19905;-68
2022/04/20 05:44:24;;;;;;;;;;;16.50;75.90;;;;;;2013737;28;19999;-69
2022/04/20 05:45:23;;;;;;;;;;;16.40;75.90;;;;;;2013833;28;19912;-69
2022/04/20 05:46:21;;;;;;;;;;;16.40;75.80;;;;;;2013809;28;19905;-69
2022/04/20 05:47:20;;;;;;;;;;;16.50;76.10;;;;;;2013887;28;20408;-69
2022/04/20 05:48:18;;;;;;;;;;;16.40;75.60;;;;;;2013751;28;19913;-68
2022/04/20 05:49:17;;;;;;;;;;;16.50;75.90;;;;;;2013730;28;19956;-70
2022/04/20 05:50:15;;;;;;;;;;;16.40;75.70;;;;;;2013838;28;19971;-70
2022/04/20 05:51:14;;;;;;;;;;;16.40;75.50;;;;;;2013142;28;19908;-68
2022/04/20 05:52:12;;;;;;;;;;;16.40;75.80;;;;;;2013382;28;19995;-68